If you wish to contribute or participate in the discussions about articles you are invited to join SKYbrary as a registered user

 Actions

Santa Fe

From SKYbrary Wiki

KSAF
Airport
ICAO: KSAF
Summary
Name Santa Fe
Region North America
Territory United States US.gif
Location Santa Fe, New Mexico
Serving
Coordinates 35° 36' 59.27" N, 106° 5' 20.68" W
Runways
Designator Length Width Surface ROPS
2/20 2543 m8,343.176 ft
46 m150.919 ft
ASP yes/yes
10/28 1920 m6,299.213 ft
23 m75.459 ft
ASP yes/yes
15/33 1922 m6,305.774 ft
46 m150.919 ft
ASP yes/yes


METAR
Observation KSAF 231853Z 25009G16KT 10SM CLR 30/08 A3016 RMK AO2 SLP094 T03000078
Station Santa Fe, Santa Fe County Municipal Airport
Date/Time 23 August 2019 18:53:00
Wind direction 250°
Wind speed 09 kts
Lowest cloud amount n/a
Temperature 30°C
Dew point 7.8°C
Humidity 24%
QNH hPa
Weather condition n/a

RE
Tag(s) Hot and High Operations

Santa Fe Municipal Airport

ICAO: KSAF IATA: SAF

Description

Santa Fe Municipal Airport is a public airport located 14 km7.559 nm
14,000 m
45,931.759 ft
southwest of the central business district (CBD) of Santa Fe, a city in Santa Fe County, New Mexico.

Climatology

A semi-arid steppe climate (Köppen climate classification BSk), with generally cold, dry winters and hot summers. Late spring and early summer is on average the wettest period of the year.

Maps

Terrain

Loading map...

Airport Layout

Loading map...


Accidents & Serious Incidents at or in vicinity of KSAF

None on SKYbrary